sensor_id;sensor_type;location;lat;lon;timestamp;P1;durP1;ratioP1;P2;durP2;ratioP2
33738;SDS011;20063;51.730;11.110;2023-06-22T00:00:57;13.50;;;8.52;;
33738;SDS011;20063;51.730;11.110;2023-06-22T00:03:23;10.75;;;8.27;;
33738;SDS011;20063;51.730;11.110;2023-06-22T00:05:50;9.65;;;8.65;;
33738;SDS011;20063;51.730;11.110;2023-06-22T00:08:17;8.40;;;7.53;;
33738;SDS011;20063;51.730;11.110;2023-06-22T00:10:44;9.30;;;7.50;;
33738;SDS011;20063;51.730;11.110;2023-06-22T00:13:10;7.72;;;6.93;;
33738;SDS011;20063;51.730;11.110;2023-06-22T00:15:36;7.70;;;6.95;;
33738;SDS011;20063;51.730;11.110;2023-06-22T00:18:10;8.10;;;7.30;;
33738;SDS011;20063;51.730;11.110;2023-06-22T00:20:36;10.18;;;8.13;;
33738;SDS011;20063;51.730;11.110;2023-06-22T00:23:02;10.77;;;7.47;;
33738;SDS011;20063;51.730;11.110;2023-06-22T00:25:36;9.63;;;8.43;;
33738;SDS011;20063;51.730;11.110;2023-06-22T00:28:08;11.20;;;9.30;;
33738;SDS011;20063;51.730;11.110;2023-06-22T00:30:34;10.32;;;8.50;;
33738;SDS011;20063;51.730;11.110;2023-06-22T00:33:00;13.55;;;8.63;;
33738;SDS011;20063;51.730;11.110;2023-06-22T00:35:26;11.23;;;8.70;;
33738;SDS011;20063;51.730;11.110;2023-06-22T00:37:54;13.38;;;9.38;;
33738;SDS011;20063;51.730;11.110;2023-06-22T00:40:25;11.63;;;9.25;;
33738;SDS011;20063;51.730;11.110;2023-06-22T00:42:54;13.82;;;9.10;;
33738;SDS011;20063;51.730;11.110;2023-06-22T00:45:21;10.77;;;9.23;;
33738;SDS011;20063;51.730;11.110;2023-06-22T00:47:48;16.17;;;9.32;;
33738;SDS011;20063;51.730;11.110;2023-06-22T00:50:17;11.75;;;9.38;;
33738;SDS011;20063;51.730;11.110;2023-06-22T00:52:53;9.40;;;8.45;;
33738;SDS011;20063;51.730;11.110;2023-06-22T00:55:36;12.35;;;9.32;;
33738;SDS011;20063;51.730;11.110;2023-06-22T00:58:07;11.73;;;8.80;;
33738;SDS011;20063;51.730;11.110;2023-06-22T01:00:35;9.85;;;8.77;;
33738;SDS011;20063;51.730;11.110;2023-06-22T01:03:01;9.15;;;8.07;;
33738;SDS011;20063;51.730;11.110;2023-06-22T01:05:27;9.43;;;8.45;;
33738;SDS011;20063;51.730;11.110;2023-06-22T01:08:10;8.82;;;7.85;;
33738;SDS011;20063;51.730;11.110;2023-06-22T01:10:58;8.55;;;7.65;;
33738;SDS011;20063;51.730;11.110;2023-06-22T01:13:52;7.90;;;7.10;;
33738;SDS011;20063;51.730;11.110;2023-06-22T01:16:43;25.23;;;9.23;;
33738;SDS011;20063;51.730;11.110;2023-06-22T01:22:00;9.57;;;8.57;;
33738;SDS011;20063;51.730;11.110;2023-06-22T01:24:27;10.82;;;8.23;;
33738;SDS011;20063;51.730;11.110;2023-06-22T01:27:05;12.60;;;8.90;;
33738;SDS011;20063;51.730;11.110;2023-06-22T01:29:35;12.02;;;7.93;;
33738;SDS011;20063;51.730;11.110;2023-06-22T01:32:02;14.27;;;8.65;;
33738;SDS011;20063;51.730;11.110;2023-06-22T01:34:31;9.30;;;7.97;;
33738;SDS011;20063;51.730;11.110;2023-06-22T01:36:57;10.85;;;8.35;;
33738;SDS011;20063;51.730;11.110;2023-06-22T01:39:24;13.15;;;9.98;;
33738;SDS011;20063;51.730;11.110;2023-06-22T01:41:51;12.00;;;9.07;;
33738;SDS011;20063;51.730;11.110;2023-06-22T01:44:19;14.55;;;9.32;;
33738;SDS011;20063;51.730;11.110;2023-06-22T01:46:46;12.07;;;10.05;;
33738;SDS011;20063;51.730;11.110;2023-06-22T01:49:15;12.05;;;8.93;;
33738;SDS011;20063;51.730;11.110;2023-06-22T01:51:40;10.55;;;8.57;;
33738;SDS011;20063;51.730;11.110;2023-06-22T01:54:06;12.38;;;9.45;;
33738;SDS011;20063;51.730;11.110;2023-06-22T01:56:33;8.57;;;7.78;;
33738;SDS011;20063;51.730;11.110;2023-06-22T02:01:43;14.38;;;8.38;;
33738;SDS011;20063;51.730;11.110;2023-06-22T02:04:19;14.93;;;10.02;;
33738;SDS011;20063;51.730;11.110;2023-06-22T02:06:49;10.23;;;8.32;;
33738;SDS011;20063;51.730;11.110;2023-06-22T02:09:19;9.95;;;7.75;;
33738;SDS011;20063;51.730;11.110;2023-06-22T02:11:47;9.65;;;8.73;;
33738;SDS011;20063;51.730;11.110;2023-06-22T02:14:16;11.77;;;9.00;;
33738;SDS011;20063;51.730;11.110;2023-06-22T02:16:43;10.27;;;9.13;;
33738;SDS011;20063;51.730;11.110;2023-06-22T02:19:09;11.93;;;9.02;;
33738;SDS011;20063;51.730;11.110;2023-06-22T02:21:34;10.68;;;8.25;;
33738;SDS011;20063;51.730;11.110;2023-06-22T02:24:00;10.70;;;9.13;;
33738;SDS011;20063;51.730;11.110;2023-06-22T02:26:25;13.18;;;8.45;;
33738;SDS011;20063;51.730;11.110;2023-06-22T02:28:52;20.13;;;10.48;;
33738;SDS011;20063;51.730;11.110;2023-06-22T02:31:18;11.07;;;9.52;;
33738;SDS011;20063;51.730;11.110;2023-06-22T02:33:45;10.20;;;8.80;;
33738;SDS011;20063;51.730;11.110;2023-06-22T02:36:10;14.68;;;9.60;;
33738;SDS011;20063;51.730;11.110;2023-06-22T02:38:40;10.23;;;8.77;;
33738;SDS011;20063;51.730;11.110;2023-06-22T02:41:13;9.70;;;8.70;;
33738;SDS011;20063;51.730;11.110;2023-06-22T02:43:43;15.20;;;10.60;;
33738;SDS011;20063;51.730;11.110;2023-06-22T02:46:12;13.63;;;10.73;;
33738;SDS011;20063;51.730;11.110;2023-06-22T02:48:38;10.65;;;9.60;;
33738;SDS011;20063;51.730;11.110;2023-06-22T02:51:13;9.70;;;8.38;;
33738;SDS011;20063;51.730;11.110;2023-06-22T02:53:40;12.90;;;9.77;;
33738;SDS011;20063;51.730;11.110;2023-06-22T02:56:15;12.05;;;9.00;;
33738;SDS011;20063;51.730;11.110;2023-06-22T02:58:42;11.40;;;9.77;;
33738;SDS011;20063;51.730;11.110;2023-06-22T03:01:08;11.95;;;10.40;;
33738;SDS011;20063;51.730;11.110;2023-06-22T03:03:35;12.80;;;9.85;;
33738;SDS011;20063;51.730;11.110;2023-06-22T03:06:00;10.45;;;9.18;;
33738;SDS011;20063;51.730;11.110;2023-06-22T03:08:26;13.40;;;9.73;;
33738;SDS011;20063;51.730;11.110;2023-06-22T03:10:51;12.55;;;9.75;;
33738;SDS011;20063;51.730;11.110;2023-06-22T03:13:17;12.93;;;9.98;;
33738;SDS011;20063;51.730;11.110;2023-06-22T03:15:42;13.07;;;10.20;;
33738;SDS011;20063;51.730;11.110;2023-06-22T03:18:08;14.43;;;10.20;;
33738;SDS011;20063;51.730;11.110;2023-06-22T03:20:33;12.75;;;10.13;;
33738;SDS011;20063;51.730;11.110;2023-06-22T03:22:59;12.63;;;10.07;;
33738;SDS011;20063;51.730;11.110;2023-06-22T03:25:25;10.55;;;9.52;;
33738;SDS011;20063;51.730;11.110;2023-06-22T03:27:50;12.60;;;9.77;;
33738;SDS011;20063;51.730;11.110;2023-06-22T03:30:16;10.70;;;9.60;;
33738;SDS011;20063;51.730;11.110;2023-06-22T03:32:43;11.50;;;10.25;;
33738;SDS011;20063;51.730;11.110;2023-06-22T03:35:09;13.88;;;9.98;;
33738;SDS011;20063;51.730;11.110;2023-06-22T03:37:38;10.38;;;9.32;;
33738;SDS011;20063;51.730;11.110;2023-06-22T03:40:04;14.13;;;10.20;;
33738;SDS011;20063;51.730;11.110;2023-06-22T03:42:30;9.18;;;8.27;;
33738;SDS011;20063;51.730;11.110;2023-06-22T03:44:55;8.80;;;8.00;;
33738;SDS011;20063;51.730;11.110;2023-06-22T03:47:22;9.38;;;8.45;;
33738;SDS011;20063;51.730;11.110;2023-06-22T03:49:47;9.85;;;8.82;;
33738;SDS011;20063;51.730;11.110;2023-06-22T03:52:13;9.18;;;8.27;;
33738;SDS011;20063;51.730;11.110;2023-06-22T03:54:38;9.38;;;8.02;;
33738;SDS011;20063;51.730;11.110;2023-06-22T03:57:04;10.48;;;8.63;;
33738;SDS011;20063;51.730;11.110;2023-06-22T03:59:30;13.20;;;9.95;;
33738;SDS011;20063;51.730;11.110;2023-06-22T04:01:56;10.43;;;9.25;;
33738;SDS011;20063;51.730;11.110;2023-06-22T04:04:21;18.27;;;10.98;;
33738;SDS011;20063;51.730;11.110;2023-06-22T04:06:47;11.13;;;9.50;;
33738;SDS011;20063;51.730;11.110;2023-06-22T04:09:13;11.20;;;10.10;;
33738;SDS011;20063;51.730;11.110;2023-06-22T04:11:39;12.63;;;11.35;;
33738;SDS011;20063;51.730;11.110;2023-06-22T04:14:04;11.80;;;9.25;;
33738;SDS011;20063;51.730;11.110;2023-06-22T04:16:30;10.43;;;9.43;;
33738;SDS011;20063;51.730;11.110;2023-06-22T04:18:55;11.55;;;9.27;;
33738;SDS011;20063;51.730;11.110;2023-06-22T04:21:21;10.82;;;8.52;;
33738;SDS011;20063;51.730;11.110;2023-06-22T04:23:48;12.27;;;10.25;;
33738;SDS011;20063;51.730;11.110;2023-06-22T04:26:13;10.38;;;9.38;;
33738;SDS011;20063;51.730;11.110;2023-06-22T04:28:39;11.32;;;9.27;;
33738;SDS011;20063;51.730;11.110;2023-06-22T04:31:05;12.18;;;8.63;;
33738;SDS011;20063;51.730;11.110;2023-06-22T04:33:31;8.82;;;7.93;;
33738;SDS011;20063;51.730;11.110;2023-06-22T04:35:57;9.32;;;8.40;;
33738;SDS011;20063;51.730;11.110;2023-06-22T04:38:26;9.02;;;8.13;;
33738;SDS011;20063;51.730;11.110;2023-06-22T04:40:52;9.18;;;8.13;;
33738;SDS011;20063;51.730;11.110;2023-06-22T04:43:18;10.70;;;8.88;;
33738;SDS011;20063;51.730;11.110;2023-06-22T04:45:44;10.70;;;9.60;;
33738;SDS011;20063;51.730;11.110;2023-06-22T04:48:10;11.20;;;8.77;;
33738;SDS011;20063;51.730;11.110;2023-06-22T04:50:41;11.00;;;9.90;;
33738;SDS011;20063;51.730;11.110;2023-06-22T04:53:07;12.85;;;9.68;;
33738;SDS011;20063;51.730;11.110;2023-06-22T04:55:34;9.80;;;8.80;;
33738;SDS011;20063;51.730;11.110;2023-06-22T04:58:02;12.77;;;9.57;;
33738;SDS011;20063;51.730;11.110;2023-06-22T05:00:29;10.93;;;9.77;;
33738;SDS011;20063;51.730;11.110;2023-06-22T05:02:55;14.02;;;10.07;;
33738;SDS011;20063;51.730;11.110;2023-06-22T05:05:22;11.48;;;10.15;;
33738;SDS011;20063;51.730;11.110;2023-06-22T05:07:50;9.63;;;8.73;;
33738;SDS011;20063;51.730;11.110;2023-06-22T05:10:18;14.27;;;10.88;;
33738;SDS011;20063;51.730;11.110;2023-06-22T05:12:46;11.05;;;9.48;;
33738;SDS011;20063;51.730;11.110;2023-06-22T05:15:13;10.90;;;8.82;;
33738;SDS011;20063;51.730;11.110;2023-06-22T05:17:40;10.18;;;9.15;;
33738;SDS011;20063;51.730;11.110;2023-06-22T05:20:09;24.08;;;13.23;;
33738;SDS011;20063;51.730;11.110;2023-06-22T05:22:38;14.77;;;11.85;;
33738;SDS011;20063;51.730;11.110;2023-06-22T05:25:05;14.38;;;10.77;;
33738;SDS011;20063;51.730;11.110;2023-06-22T05:27:33;12.98;;;9.52;;
33738;SDS011;20063;51.730;11.110;2023-06-22T05:29:58;10.27;;;9.25;;
33738;SDS011;20063;51.730;11.110;2023-06-22T05:32:24;11.35;;;9.25;;
33738;SDS011;20063;51.730;11.110;2023-06-22T05:34:49;13.55;;;10.63;;
33738;SDS011;20063;51.730;11.110;2023-06-22T05:37:18;15.65;;;10.10;;
33738;SDS011;20063;51.730;11.110;2023-06-22T05:39:43;11.02;;;9.35;;
33738;SDS011;20063;51.730;11.110;2023-06-22T05:42:09;9.68;;;8.73;;
33738;SDS011;20063;51.730;11.110;2023-06-22T05:44:43;13.87;;;10.97;;
33738;SDS011;20063;51.730;11.110;2023-06-22T05:47:09;12.23;;;10.57;;
33738;SDS011;20063;51.730;11.110;2023-06-22T05:49:34;13.02;;;10.45;;
33738;SDS011;20063;51.730;11.110;2023-06-22T05:52:00;13.25;;;9.25;;
33738;SDS011;20063;51.730;11.110;2023-06-22T05:54:27;15.00;;;9.80;;
33738;SDS011;20063;51.730;11.110;2023-06-22T05:56:53;11.35;;;9.70;;
33738;SDS011;20063;51.730;11.110;2023-06-22T05:59:19;15.85;;;10.93;;
33738;SDS011;20063;51.730;11.110;2023-06-22T06:01:44;12.50;;;10.73;;
33738;SDS011;20063;51.730;11.110;2023-06-22T06:04:18;12.77;;;9.65;;
33738;SDS011;20063;51.730;11.110;2023-06-22T06:06:44;15.68;;;10.82;;
33738;SDS011;20063;51.730;11.110;2023-06-22T06:09:09;13.25;;;9.73;;
33738;SDS011;20063;51.730;11.110;2023-06-22T06:11:36;14.32;;;11.25;;
33738;SDS011;20063;51.730;11.110;2023-06-22T06:14:02;16.42;;;11.77;;
33738;SDS011;20063;51.730;11.110;2023-06-22T06:16:28;11.45;;;10.25;;
33738;SDS011;20063;51.730;11.110;2023-06-22T06:18:54;15.18;;;10.38;;
33738;SDS011;20063;51.730;11.110;2023-06-22T06:21:20;16.05;;;10.63;;
33738;SDS011;20063;51.730;11.110;2023-06-22T06:23:46;12.30;;;11.10;;
33738;SDS011;20063;51.730;11.110;2023-06-22T06:26:12;14.77;;;11.93;;
33738;SDS011;20063;51.730;11.110;2023-06-22T06:28:41;12.02;;;10.75;;
33738;SDS011;20063;51.730;11.110;2023-06-22T06:31:06;14.93;;;11.45;;
33738;SDS011;20063;51.730;11.110;2023-06-22T06:33:33;12.05;;;10.82;;
33738;SDS011;20063;51.730;11.110;2023-06-22T06:35:59;13.95;;;11.68;;
33738;SDS011;20063;51.730;11.110;2023-06-22T06:38:27;13.70;;;10.85;;
33738;SDS011;20063;51.730;11.110;2023-06-22T06:40:53;13.77;;;11.70;;
33738;SDS011;20063;51.730;11.110;2023-06-22T06:43:18;14.13;;;10.90;;
33738;SDS011;20063;51.730;11.110;2023-06-22T06:45:44;16.25;;;11.93;;
33738;SDS011;20063;51.730;11.110;2023-06-22T06:48:09;21.48;;;14.30;;
33738;SDS011;20063;51.730;11.110;2023-06-22T06:50:35;16.80;;;12.25;;
33738;SDS011;20063;51.730;11.110;2023-06-22T06:53:00;13.63;;;12.23;;
33738;SDS011;20063;51.730;11.110;2023-06-22T06:55:27;13.63;;;11.68;;
33738;SDS011;20063;51.730;11.110;2023-06-22T06:57:53;12.85;;;11.40;;
33738;SDS011;20063;51.730;11.110;2023-06-22T07:00:22;14.65;;;11.88;;
33738;SDS011;20063;51.730;11.110;2023-06-22T07:02:47;20.35;;;13.15;;
33738;SDS011;20063;51.730;11.110;2023-06-22T07:05:14;21.33;;;14.35;;
33738;SDS011;20063;51.730;11.110;2023-06-22T07:07:39;17.02;;;14.02;;
33738;SDS011;20063;51.730;11.110;2023-06-22T07:10:06;15.00;;;12.95;;
33738;SDS011;20063;51.730;11.110;2023-06-22T07:12:32;19.42;;;14.38;;
33738;SDS011;20063;51.730;11.110;2023-06-22T07:15:05;17.15;;;14.45;;
33738;SDS011;20063;51.730;11.110;2023-06-22T07:17:38;18.02;;;14.25;;
33738;SDS011;20063;51.730;11.110;2023-06-22T07:20:06;16.50;;;13.75;;
33738;SDS011;20063;51.730;11.110;2023-06-22T07:22:37;16.58;;;13.02;;
33738;SDS011;20063;51.730;11.110;2023-06-22T07:25:05;14.20;;;11.75;;
33738;SDS011;20063;51.730;11.110;2023-06-22T07:27:37;19.42;;;13.45;;
33738;SDS011;20063;51.730;11.110;2023-06-22T07:30:05;23.60;;;16.67;;
33738;SDS011;20063;51.730;11.110;2023-06-22T07:32:32;26.08;;;16.67;;
33738;SDS011;20063;51.730;11.110;2023-06-22T07:34:57;24.98;;;14.52;;
33738;SDS011;20063;51.730;11.110;2023-06-22T07:37:26;15.40;;;13.05;;
33738;SDS011;20063;51.730;11.110;2023-06-22T07:39:53;25.88;;;14.73;;
33738;SDS011;20063;51.730;11.110;2023-06-22T07:42:24;20.17;;;14.50;;
33738;SDS011;20063;51.730;11.110;2023-06-22T07:44:50;33.85;;;19.35;;
33738;SDS011;20063;51.730;11.110;2023-06-22T07:47:22;42.22;;;17.00;;
33738;SDS011;20063;51.730;11.110;2023-06-22T07:49:50;27.67;;;16.33;;
33738;SDS011;20063;51.730;11.110;2023-06-22T07:52:16;20.85;;;14.40;;
33738;SDS011;20063;51.730;11.110;2023-06-22T07:54:49;26.98;;;17.25;;
33738;SDS011;20063;51.730;11.110;2023-06-22T07:57:15;27.92;;;17.15;;
33738;SDS011;20063;51.730;11.110;2023-06-22T07:59:40;24.52;;;16.77;;
33738;SDS011;20063;51.730;11.110;2023-06-22T08:02:06;29.95;;;18.50;;
33738;SDS011;20063;51.730;11.110;2023-06-22T08:04:33;38.85;;;22.90;;
33738;SDS011;20063;51.730;11.110;2023-06-22T08:06:59;29.13;;;19.58;;
33738;SDS011;20063;51.730;11.110;2023-06-22T08:09:27;27.05;;;17.17;;
33738;SDS011;20063;51.730;11.110;2023-06-22T08:11:54;24.00;;;16.50;;
33738;SDS011;20063;51.730;11.110;2023-06-22T08:14:21;17.77;;;14.70;;
33738;SDS011;20063;51.730;11.110;2023-06-22T08:16:48;21.40;;;16.05;;
33738;SDS011;20063;51.730;11.110;2023-06-22T08:19:20;23.85;;;16.60;;
33738;SDS011;20063;51.730;11.110;2023-06-22T08:21:46;16.65;;;14.73;;
33738;SDS011;20063;51.730;11.110;2023-06-22T08:24:11;27.85;;;18.10;;
33738;SDS011;20063;51.730;11.110;2023-06-22T08:26:37;27.73;;;18.27;;
33738;SDS011;20063;51.730;11.110;2023-06-22T08:29:03;32.38;;;22.00;;
33738;SDS011;20063;51.730;11.110;2023-06-22T08:31:30;21.65;;;18.60;;
33738;SDS011;20063;51.730;11.110;2023-06-22T08:33:58;20.00;;;17.25;;
33738;SDS011;20063;51.730;11.110;2023-06-22T08:36:23;27.35;;;20.02;;
33738;SDS011;20063;51.730;11.110;2023-06-22T08:38:49;28.08;;;16.67;;
33738;SDS011;20063;51.730;11.110;2023-06-22T08:41:16;20.67;;;17.25;;
33738;SDS011;20063;51.730;11.110;2023-06-22T08:43:42;25.75;;;20.15;;
33738;SDS011;20063;51.730;11.110;2023-06-22T08:46:09;30.40;;;21.88;;
33738;SDS011;20063;51.730;11.110;2023-06-22T08:48:38;34.35;;;23.13;;
33738;SDS011;20063;51.730;11.110;2023-06-22T08:51:04;22.55;;;18.58;;
33738;SDS011;20063;51.730;11.110;2023-06-22T08:53:29;20.45;;;16.83;;
33738;SDS011;20063;51.730;11.110;2023-06-22T08:55:55;26.88;;;18.85;;
33738;SDS011;20063;51.730;11.110;2023-06-22T08:58:26;25.88;;;17.60;;
33738;SDS011;20063;51.730;11.110;2023-06-22T09:00:53;25.73;;;18.23;;
33738;SDS011;20063;51.730;11.110;2023-06-22T09:03:22;20.95;;;15.98;;
33738;SDS011;20063;51.730;11.110;2023-06-22T09:05:52;22.75;;;17.45;;
33738;SDS011;20063;51.730;11.110;2023-06-22T09:08:23;24.85;;;17.52;;
33738;SDS011;20063;51.730;11.110;2023-06-22T09:10:49;21.17;;;16.60;;
33738;SDS011;20063;51.730;11.110;2023-06-22T09:13:15;30.45;;;17.85;;
33738;SDS011;20063;51.730;11.110;2023-06-22T09:15:40;23.95;;;17.02;;
33738;SDS011;20063;51.730;11.110;2023-06-22T09:18:06;25.25;;;16.90;;
33738;SDS011;20063;51.730;11.110;2023-06-22T09:20:31;18.65;;;16.23;;
33738;SDS011;20063;51.730;11.110;2023-06-22T09:22:58;25.08;;;17.50;;
33738;SDS011;20063;51.730;11.110;2023-06-22T09:25:23;21.98;;;14.77;;
33738;SDS011;20063;51.730;11.110;2023-06-22T09:27:49;18.23;;;14.52;;
33738;SDS011;20063;51.730;11.110;2023-06-22T09:30:14;21.70;;;14.73;;
33738;SDS011;20063;51.730;11.110;2023-06-22T09:32:40;20.15;;;13.85;;
33738;SDS011;20063;51.730;11.110;2023-06-22T09:35:06;21.45;;;14.65;;
33738;SDS011;20063;51.730;11.110;2023-06-22T09:37:33;19.63;;;14.18;;
33738;SDS011;20063;51.730;11.110;2023-06-22T09:39:59;24.00;;;15.25;;
33738;SDS011;20063;51.730;11.110;2023-06-22T09:43:02;24.10;;;17.75;;
33738;SDS011;20063;51.730;11.110;2023-06-22T09:45:31;22.55;;;14.95;;
33738;SDS011;20063;51.730;11.110;2023-06-22T09:47:56;21.88;;;15.13;;
33738;SDS011;20063;51.730;11.110;2023-06-22T09:50:22;29.25;;;19.42;;
33738;SDS011;20063;51.730;11.110;2023-06-22T09:52:47;28.65;;;17.55;;
33738;SDS011;20063;51.730;11.110;2023-06-22T09:55:15;21.52;;;16.15;;
33738;SDS011;20063;51.730;11.110;2023-06-22T09:57:42;23.95;;;17.75;;
33738;SDS011;20063;51.730;11.110;2023-06-22T10:00:08;24.33;;;16.50;;
33738;SDS011;20063;51.730;11.110;2023-06-22T10:02:36;19.95;;;14.60;;
33738;SDS011;20063;51.730;11.110;2023-06-22T10:05:02;27.13;;;18.08;;
33738;SDS011;20063;51.730;11.110;2023-06-22T10:07:27;23.70;;;16.70;;
33738;SDS011;20063;51.730;11.110;2023-06-22T10:09:53;29.73;;;18.27;;
33738;SDS011;20063;51.730;11.110;2023-06-22T10:12:18;22.50;;;16.05;;
33738;SDS011;20063;51.730;11.110;2023-06-22T10:14:44;18.42;;;15.07;;
33738;SDS011;20063;51.730;11.110;2023-06-22T10:17:09;17.50;;;14.88;;
33738;SDS011;20063;51.730;11.110;2023-06-22T10:19:35;18.00;;;14.27;;
33738;SDS011;20063;51.730;11.110;2023-06-22T10:22:02;26.95;;;17.40;;
33738;SDS011;20063;51.730;11.110;2023-06-22T10:24:29;25.90;;;16.45;;
33738;SDS011;20063;51.730;11.110;2023-06-22T10:26:54;18.55;;;15.80;;
33738;SDS011;20063;51.730;11.110;2023-06-22T10:29:20;18.45;;;14.50;;
33738;SDS011;20063;51.730;11.110;2023-06-22T10:31:45;23.27;;;14.25;;
33738;SDS011;20063;51.730;11.110;2023-06-22T10:34:11;22.33;;;14.10;;
33738;SDS011;20063;51.730;11.110;2023-06-22T10:36:36;23.25;;;14.60;;
33738;SDS011;20063;51.730;11.110;2023-06-22T10:39:06;18.58;;;12.38;;
33738;SDS011;20063;51.730;11.110;2023-06-22T10:41:31;25.92;;;13.98;;
33738;SDS011;20063;51.730;11.110;2023-06-22T10:43:58;18.23;;;11.63;;
33738;SDS011;20063;51.730;11.110;2023-06-22T10:46:24;18.75;;;11.45;;
33738;SDS011;20063;51.730;11.110;2023-06-22T10:48:53;19.73;;;13.45;;
33738;SDS011;20063;51.730;11.110;2023-06-22T10:51:29;18.00;;;12.93;;
33738;SDS011;20063;51.730;11.110;2023-06-22T10:53:56;14.95;;;12.65;;
33738;SDS011;20063;51.730;11.110;2023-06-22T10:56:22;14.40;;;12.38;;
33738;SDS011;20063;51.730;11.110;2023-06-22T10:58:49;14.77;;;12.75;;
33738;SDS011;20063;51.730;11.110;2023-06-22T11:01:14;14.77;;;12.02;;
33738;SDS011;20063;51.730;11.110;2023-06-22T11:03:40;15.15;;;12.02;;
33738;SDS011;20063;51.730;11.110;2023-06-22T11:06:06;15.93;;;12.35;;
33738;SDS011;20063;51.730;11.110;2023-06-22T11:08:31;15.95;;;12.52;;
33738;SDS011;20063;51.730;11.110;2023-06-22T11:10:57;12.65;;;11.23;;
33738;SDS011;20063;51.730;11.110;2023-06-22T11:13:23;13.77;;;10.23;;
33738;SDS011;20063;51.730;11.110;2023-06-22T11:15:50;15.32;;;11.82;;
33738;SDS011;20063;51.730;11.110;2023-06-22T11:18:15;24.80;;;11.90;;
33738;SDS011;20063;51.730;11.110;2023-06-22T11:20:41;13.82;;;11.35;;
33738;SDS011;20063;51.730;11.110;2023-06-22T11:23:07;18.48;;;11.45;;
33738;SDS011;20063;51.730;11.110;2023-06-22T11:25:33;17.35;;;10.60;;
33738;SDS011;20063;51.730;11.110;2023-06-22T11:28:04;24.48;;;10.15;;
33738;SDS011;20063;51.730;11.110;2023-06-22T11:30:39;13.98;;;10.32;;
33738;SDS011;20063;51.730;11.110;2023-06-22T11:33:04;13.38;;;10.52;;
33738;SDS011;20063;51.730;11.110;2023-06-22T11:35:30;10.63;;;9.32;;
33738;SDS011;20063;51.730;11.110;2023-06-22T11:37:55;12.30;;;9.82;;
33738;SDS011;20063;51.730;11.110;2023-06-22T11:40:24;14.25;;;10.68;;
33738;SDS011;20063;51.730;11.110;2023-06-22T11:42:49;13.02;;;11.15;;
33738;SDS011;20063;51.730;11.110;2023-06-22T11:45:15;15.57;;;11.55;;
33738;SDS011;20063;51.730;11.110;2023-06-22T11:47:42;15.57;;;10.70;;
33738;SDS011;20063;51.730;11.110;2023-06-22T11:50:08;35.45;;;11.82;;
33738;SDS011;20063;51.730;11.110;2023-06-22T11:52:34;26.38;;;11.48;;
33738;SDS011;20063;51.730;11.110;2023-06-22T11:55:01;34.28;;;10.70;;
33738;SDS011;20063;51.730;11.110;2023-06-22T11:57:35;14.30;;;11.05;;
33738;SDS011;20063;51.730;11.110;2023-06-22T12:00:02;17.15;;;11.65;;
33738;SDS011;20063;51.730;11.110;2023-06-22T12:02:41;15.95;;;10.82;;
33738;SDS011;20063;51.730;11.110;2023-06-22T12:05:06;16.77;;;10.43;;
33738;SDS011;20063;51.730;11.110;2023-06-22T12:07:33;12.82;;;11.05;;
33738;SDS011;20063;51.730;11.110;2023-06-22T12:09:58;14.35;;;10.82;;
33738;SDS011;20063;51.730;11.110;2023-06-22T12:12:24;13.65;;;10.45;;
33738;SDS011;20063;51.730;11.110;2023-06-22T12:14:49;12.10;;;10.27;;
33738;SDS011;20063;51.730;11.110;2023-06-22T12:17:15;13.77;;;10.15;;
33738;SDS011;20063;51.730;11.110;2023-06-22T12:19:40;14.10;;;10.85;;
33738;SDS011;20063;51.730;11.110;2023-06-22T12:22:06;12.30;;;11.00;;
33738;SDS011;20063;51.730;11.110;2023-06-22T12:24:32;14.20;;;10.93;;
33738;SDS011;20063;51.730;11.110;2023-06-22T12:26:57;13.38;;;10.90;;
33738;SDS011;20063;51.730;11.110;2023-06-22T12:29:24;16.83;;;10.93;;
33738;SDS011;20063;51.730;11.110;2023-06-22T12:31:50;11.68;;;10.13;;
33738;SDS011;20063;51.730;11.110;2023-06-22T12:34:15;12.20;;;8.65;;
33738;SDS011;20063;51.730;11.110;2023-06-22T12:36:41;17.10;;;9.88;;
33738;SDS011;20063;51.730;11.110;2023-06-22T12:39:06;11.95;;;10.05;;
33738;SDS011;20063;51.730;11.110;2023-06-22T12:41:38;19.13;;;9.98;;
33738;SDS011;20063;51.730;11.110;2023-06-22T12:44:03;11.27;;;9.30;;
33738;SDS011;20063;51.730;11.110;2023-06-22T12:46:29;12.07;;;9.52;;
33738;SDS011;20063;51.730;11.110;2023-06-22T12:49:01;14.80;;;10.82;;
33738;SDS011;20063;51.730;11.110;2023-06-22T12:51:27;11.38;;;9.38;;
33738;SDS011;20063;51.730;11.110;2023-06-22T12:53:54;11.95;;;9.60;;
33738;SDS011;20063;51.730;11.110;2023-06-22T12:56:19;18.48;;;9.77;;
33738;SDS011;20063;51.730;11.110;2023-06-22T12:58:47;10.52;;;9.43;;
33738;SDS011;20063;51.730;11.110;2023-06-22T13:01:12;12.98;;;10.13;;
33738;SDS011;20063;51.730;11.110;2023-06-22T13:03:38;10.63;;;9.15;;
33738;SDS011;20063;51.730;11.110;2023-06-22T13:06:04;13.02;;;7.93;;
33738;SDS011;20063;51.730;11.110;2023-06-22T13:08:29;10.27;;;8.98;;
33738;SDS011;20063;51.730;11.110;2023-06-22T13:10:55;17.63;;;9.10;;
33738;SDS011;20063;51.730;11.110;2023-06-22T13:13:26;11.68;;;8.63;;
33738;SDS011;20063;51.730;11.110;2023-06-22T13:15:59;20.05;;;9.52;;
33738;SDS011;20063;51.730;11.110;2023-06-22T13:18:30;20.70;;;9.88;;
33738;SDS011;20063;51.730;11.110;2023-06-22T13:20:56;17.08;;;8.90;;
33738;SDS011;20063;51.730;11.110;2023-06-22T13:23:26;12.85;;;8.63;;
33738;SDS011;20063;51.730;11.110;2023-06-22T13:25:51;18.58;;;9.43;;
33738;SDS011;20063;51.730;11.110;2023-06-22T13:28:18;15.18;;;9.45;;
33738;SDS011;20063;51.730;11.110;2023-06-22T13:30:46;14.35;;;9.77;;
33738;SDS011;20063;51.730;11.110;2023-06-22T13:33:13;12.18;;;9.38;;
33738;SDS011;20063;51.730;11.110;2023-06-22T13:35:39;11.93;;;9.57;;
33738;SDS011;20063;51.730;11.110;2023-06-22T13:38:07;10.20;;;9.10;;
33738;SDS011;20063;51.730;11.110;2023-06-22T13:40:34;10.32;;;8.68;;
33738;SDS011;20063;51.730;11.110;2023-06-22T13:43:00;13.10;;;9.98;;
33738;SDS011;20063;51.730;11.110;2023-06-22T13:45:26;14.38;;;8.80;;
33738;SDS011;20063;51.730;11.110;2023-06-22T13:47:52;12.75;;;9.10;;
33738;SDS011;20063;51.730;11.110;2023-06-22T13:50:18;10.23;;;8.38;;
33738;SDS011;20063;51.730;11.110;2023-06-22T13:52:44;11.32;;;8.73;;
33738;SDS011;20063;51.730;11.110;2023-06-22T13:55:09;18.10;;;7.95;;
33738;SDS011;20063;51.730;11.110;2023-06-22T13:57:35;10.35;;;8.57;;
33738;SDS011;20063;51.730;11.110;2023-06-22T14:00:01;11.18;;;8.55;;
33738;SDS011;20063;51.730;11.110;2023-06-22T14:02:30;8.52;;;7.72;;
33738;SDS011;20063;51.730;11.110;2023-06-22T14:04:55;12.73;;;9.52;;
33738;SDS011;20063;51.730;11.110;2023-06-22T14:07:21;13.70;;;9.40;;
33738;SDS011;20063;51.730;11.110;2023-06-22T14:09:46;14.45;;;9.35;;
33738;SDS011;20063;51.730;11.110;2023-06-22T14:12:12;10.57;;;8.95;;
33738;SDS011;20063;51.730;11.110;2023-06-22T14:14:38;17.80;;;7.90;;
33738;SDS011;20063;51.730;11.110;2023-06-22T14:17:04;10.77;;;9.18;;
33738;SDS011;20063;51.730;11.110;2023-06-22T14:19:33;9.45;;;8.35;;
33738;SDS011;20063;51.730;11.110;2023-06-22T14:22:02;15.30;;;8.15;;